City Of Cleveland — WDC2358 — position and weather

sailwx.info

Track history (hours):
 
Tides and Currents Weather Stations Pressure Air Temp Water Temp Dewpoint Dewpoint Depression Visibility Wind Speed Wind Dir Waves Ship Positions

City Of Cleveland

Owner: JANTRAN, INC., ROSEDALE, MS. More information available from US FCC via Universal Licensing System and Coast Guard Vessel Documentation Center.

Last reported at 2017-Apr-24 02:58 UTC. Time now 2017-Apr-25 00:49 UTC.
Position N 32°03' W 091°03'.

Length 42 m; draft 12.5 m.

Type: Towing. MMSI: 366991810.

Date/timePositionNaut miles runAvg speedWind from/ knotsBaromVisibWave heightAir tempDewpointWater temp
2017-Apr-24 02:58N 32°03' W 091°03'4 9.0
2017-Apr-24 02:30N 32°07' W 091°06'3 5.5
2017-Apr-24 02:00N 32°07' W 091°03'3 6.8
2017-Apr-24 01:30N 32°10' W 091°00'4 9.0
2017-Apr-24 01:00N 32°14' W 090°59'4 8.4
2017-Apr-24 00:30N 32°17' W 090°56'3 6.8
2017-Apr-24 00:00N 32°21' W 090°55'4 8.5
2017-Apr-23 23:30N 32°21' W 090°60'4 7.9
2017-Apr-23 23:00N 32°25' W 091°00'4 8.7
2017-Apr-23 22:30N 32°27' W 091°05'4 8.0
2017-Apr-23 21:59N 32°31' W 091°06'4 7.7
2017-Apr-23 21:30N 32°35' W 091°07'  
2017-Apr-16 01:12N 32°44' W 091°04'4 3.2
2017-Apr-16 00:03N 32°41' W 091°06'2 3.6
2017-Apr-15 23:35N 32°40' W 091°08'3 4.3
2017-Apr-15 22:56N 32°38' W 091°09'3 3.1
2017-Apr-15 22:07N 32°35' W 091°08'0 0.1
2017-Apr-15 21:56N 32°35' W 091°08'1 1.2
2017-Apr-15 21:08N 32°35' W 091°07'2 4.6
2017-Apr-15 20:46N 32°33' W 091°06'1 3.8
2017-Apr-15 20:27N 32°32' W 091°06'2 4.3
2017-Apr-15 20:00N 32°30' W 091°07'2 3.8
2017-Apr-15 19:30N 32°29' W 091°07'2 4.1
2017-Apr-15 19:00N 32°27' W 091°05'2 3.9
2017-Apr-15 18:30N 32°26' W 091°03'2 3.9
2017-Apr-15 18:00N 32°26' W 091°01'2 3.8
2017-Apr-15 17:30N 32°24' W 090°59'2 4.0
2017-Apr-15 17:00N 32°22' W 091°00'1 2.9
2017-Apr-15 16:30N 32°21' W 090°59'2 4.9
2017-Apr-15 16:00N 32°21' W 090°56'2 3.9
2017-Apr-15 15:30N 32°20' W 090°54'1 2.5
2017-Apr-15 15:00N 32°19' W 090°55'1 1.3
2017-Apr-15 14:30N 32°18' W 090°55'0 0.1
2017-Apr-15 13:30N 32°18' W 090°55'0 0.0
2017-Apr-15 13:00N 32°18' W 090°55'0 0.0
2017-Apr-15 12:30N 32°18' W 090°55'0 0.0
2017-Apr-15 12:00N 32°18' W 090°55'2 4.0
2017-Apr-15 11:30N 32°17' W 090°57'2 3.8
2017-Apr-15 11:00N 32°15' W 090°58'2 3.7
2017-Apr-15 10:30N 32°14' W 090°59'2 3.7
2017-Apr-15 10:00N 32°12' W 090°59'2 3.2
2017-Apr-15 09:30N 32°10' W 090°60'2 4.2
2017-Apr-15 09:00N 32°08' W 091°00'2 3.7
2017-Apr-15 08:30N 32°07' W 091°02'2 3.4
2017-Apr-15 08:00N 32°08' W 091°04'2 4.4
2017-Apr-15 07:30N 32°08' W 091°06'2 3.5
2017-Apr-15 06:53N 32°06' W 091°05'2 3.3
2017-Apr-15 06:18N 32°04' W 091°04'1 4.2
2017-Apr-15 06:00N 32°03' W 091°03'2 4.4
2017-Apr-15 05:30N 32°01' W 091°05'2 4.1
2017-Apr-15 05:00N 31°59' W 091°06'3 3.8
2017-Apr-15 04:12N 31°59' W 091°10'1 4.3
2017-Apr-15 04:00N 31°59' W 091°11'  
Track history (hours):
 
Tides and Currents Weather Stations Pressure Air Temp Water Temp Dewpoint Dewpoint Depression Visibility Wind Speed Wind Dir Waves Ship Positions

City Of Cleveland

Owner: JANTRAN, INC., ROSEDALE, MS. More information available from US FCC via Universal Licensing System and Coast Guard Vessel Documentation Center.

Last reported at 2017-Apr-24 02:58 UTC. Time now 2017-Apr-25 00:49 UTC.
Position N 32°03' W 091°03'.

Length 42 m; draft 12.5 m.

Type: Towing. MMSI: 366991810.

Date/timePositionNaut miles runAvg speedWind from/ knotsBaromVisibWave heightAir tempDewpointWater temp
2017-Apr-24 02:58N 32°03' W 091°03'4 9.0
2017-Apr-24 02:30N 32°07' W 091°06'3 5.5
2017-Apr-24 02:00N 32°07' W 091°03'3 6.8
2017-Apr-24 01:30N 32°10' W 091°00'4 9.0
2017-Apr-24 01:00N 32°14' W 090°59'4 8.4
2017-Apr-24 00:30N 32°17' W 090°56'3 6.8
2017-Apr-24 00:00N 32°21' W 090°55'4 8.5
2017-Apr-23 23:30N 32°21' W 090°60'4 7.9
2017-Apr-23 23:00N 32°25' W 091°00'4 8.7
2017-Apr-23 22:30N 32°27' W 091°05'4 8.0
2017-Apr-23 21:59N 32°31' W 091°06'4 7.7
2017-Apr-23 21:30N 32°35' W 091°07'  
2017-Apr-16 01:12N 32°44' W 091°04'4 3.2
2017-Apr-16 00:03N 32°41' W 091°06'2 3.6
2017-Apr-15 23:35N 32°40' W 091°08'3 4.3
2017-Apr-15 22:56N 32°38' W 091°09'3 3.1
2017-Apr-15 22:07N 32°35' W 091°08'0 0.1
2017-Apr-15 21:56N 32°35' W 091°08'1 1.2
2017-Apr-15 21:08N 32°35' W 091°07'2 4.6
2017-Apr-15 20:46N 32°33' W 091°06'1 3.8
2017-Apr-15 20:27N 32°32' W 091°06'2 4.3
2017-Apr-15 20:00N 32°30' W 091°07'2 3.8
2017-Apr-15 19:30N 32°29' W 091°07'2 4.1
2017-Apr-15 19:00N 32°27' W 091°05'2 3.9
2017-Apr-15 18:30N 32°26' W 091°03'2 3.9
2017-Apr-15 18:00N 32°26' W 091°01'2 3.8
2017-Apr-15 17:30N 32°24' W 090°59'2 4.0
2017-Apr-15 17:00N 32°22' W 091°00'1 2.9
2017-Apr-15 16:30N 32°21' W 090°59'2 4.9
2017-Apr-15 16:00N 32°21' W 090°56'2 3.9
2017-Apr-15 15:30N 32°20' W 090°54'1 2.5
2017-Apr-15 15:00N 32°19' W 090°55'1 1.3
2017-Apr-15 14:30N 32°18' W 090°55'0 0.1
2017-Apr-15 13:30N 32°18' W 090°55'0 0.0
2017-Apr-15 13:00N 32°18' W 090°55'0 0.0
2017-Apr-15 12:30N 32°18' W 090°55'0 0.0
2017-Apr-15 12:00N 32°18' W 090°55'2 4.0
2017-Apr-15 11:30N 32°17' W 090°57'2 3.8
2017-Apr-15 11:00N 32°15' W 090°58'2 3.7
2017-Apr-15 10:30N 32°14' W 090°59'2 3.7
2017-Apr-15 10:00N 32°12' W 090°59'2 3.2
2017-Apr-15 09:30N 32°10' W 090°60'2 4.2
2017-Apr-15 09:00N 32°08' W 091°00'2 3.7
2017-Apr-15 08:30N 32°07' W 091°02'2 3.4
2017-Apr-15 08:00N 32°08' W 091°04'2 4.4
2017-Apr-15 07:30N 32°08' W 091°06'2 3.5
2017-Apr-15 06:53N 32°06' W 091°05'2 3.3
2017-Apr-15 06:18N 32°04' W 091°04'1 4.2
2017-Apr-15 06:00N 32°03' W 091°03'2 4.4
2017-Apr-15 05:30N 32°01' W 091°05'2 4.1
2017-Apr-15 05:00N 31°59' W 091°06'3 3.8
2017-Apr-15 04:12N 31°59' W 091°10'1 4.3
2017-Apr-15 04:00N 31°59' W 091°11'  

Dump ship's entire track history